createdAt,value
2018-03-27T00:00:36.314Z,0
2018-03-27T00:01:36.275Z,0
2018-03-27T00:02:36.254Z,0
2018-03-27T00:03:36.260Z,0
2018-03-27T00:04:35.732Z,0
2018-03-27T00:05:36.233Z,0
2018-03-27T00:06:35.953Z,0
2018-03-27T00:07:36.208Z,0
2018-03-27T00:08:35.676Z,0
2018-03-27T00:09:36.170Z,0
2018-03-27T00:10:35.914Z,0
2018-03-27T00:11:35.903Z,0
2018-03-27T00:12:35.905Z,0
2018-03-27T00:13:36.126Z,0
2018-03-27T00:14:36.130Z,0
2018-03-27T00:15:36.112Z,0
2018-03-27T00:16:36.231Z,0
2018-03-27T00:17:36.075Z,0
2018-03-27T00:18:35.830Z,0
2018-03-27T00:19:36.068Z,0
2018-03-27T00:20:36.041Z,0
2018-03-27T00:21:35.779Z,0
2018-03-27T00:22:36.040Z,0
2018-03-27T00:23:36.013Z,0
2018-03-27T00:24:35.999Z,0
2018-03-27T00:25:35.984Z,0
2018-03-27T00:26:35.975Z,0
2018-03-27T00:27:35.962Z,0
2018-03-27T00:28:35.703Z,0
2018-03-27T00:29:35.433Z,0
2018-03-27T00:30:35.925Z,0
2018-03-27T00:31:35.968Z,0
2018-03-27T00:32:35.659Z,0
2018-03-27T00:33:35.908Z,0
2018-03-27T00:34:35.876Z,0
2018-03-27T00:35:35.626Z,0
2018-03-27T00:36:35.346Z,0
2018-03-27T00:37:35.848Z,0
2018-03-27T00:38:35.835Z,0
2018-03-27T00:39:35.563Z,0
2018-03-27T00:40:35.053Z,0
2018-03-27T00:41:35.793Z,0
2018-03-27T00:42:35.793Z,0
2018-03-27T00:43:35.773Z,0
2018-03-27T00:44:35.760Z,0
2018-03-27T00:45:35.751Z,0
2018-03-27T00:46:35.765Z,0
2018-03-27T00:47:35.728Z,0
2018-03-27T00:48:35.711Z,0
2018-03-27T00:49:35.448Z,0
2018-03-27T00:50:35.432Z,0
2018-03-27T00:51:35.418Z,0
2018-03-27T00:52:35.661Z,0
2018-03-27T00:53:35.393Z,0
2018-03-27T00:54:35.648Z,0
2018-03-27T00:55:35.637Z,0
2018-03-27T00:56:35.358Z,0
2018-03-27T00:57:35.357Z,0
2018-03-27T00:58:35.346Z,0
2018-03-27T00:59:35.592Z,0
2018-03-27T01:00:35.319Z,0
2018-03-27T01:01:35.303Z,0
2018-03-27T01:02:35.553Z,0
2018-03-27T01:03:35.531Z,0
2018-03-27T01:04:35.520Z,0
2018-03-27T01:05:35.510Z,0
2018-03-27T01:06:35.513Z,0
2018-03-27T01:07:35.232Z,0
2018-03-27T01:08:34.713Z,0
2018-03-27T01:09:35.462Z,0
2018-03-27T01:10:35.193Z,0
2018-03-27T01:11:35.444Z,0
2018-03-27T01:12:35.169Z,0
2018-03-27T01:13:35.423Z,0
2018-03-27T01:14:35.406Z,0
2018-03-27T01:15:35.395Z,0
2018-03-27T01:16:35.390Z,0
2018-03-27T01:17:34.860Z,0
2018-03-27T01:18:35.355Z,0
2018-03-27T01:19:35.345Z,0
2018-03-27T01:20:35.337Z,0
2018-03-27T01:21:35.319Z,0
2018-03-27T01:22:35.308Z,0
2018-03-27T01:23:35.313Z,0
2018-03-27T01:24:35.031Z,0
2018-03-27T01:25:35.282Z,0
2018-03-27T01:26:35.265Z,0
2018-03-27T01:27:34.743Z,0
2018-03-27T01:28:35.237Z,0
2018-03-27T01:29:34.981Z,0
2018-03-27T01:30:34.972Z,0
2018-03-27T01:31:35.208Z,0
2018-03-27T01:32:35.192Z,0
2018-03-27T01:33:34.928Z,0
2018-03-27T01:34:34.915Z,0
2018-03-27T01:35:35.171Z,0
2018-03-27T01:36:35.146Z,0
2018-03-27T01:37:35.136Z,0
2018-03-27T01:38:34.618Z,0
2018-03-27T01:39:35.176Z,0
2018-03-27T01:40:35.131Z,0
2018-03-27T01:41:34.855Z,0
2018-03-27T01:42:35.111Z,0
2018-03-27T01:43:35.074Z,0
2018-03-27T01:44:35.079Z,0
2018-03-27T01:45:34.802Z,0
2018-03-27T01:46:35.034Z,0
2018-03-27T01:47:35.020Z,0
2018-03-27T01:48:35.009Z,0
2018-03-27T01:49:34.763Z,0
2018-03-27T01:50:35.022Z,0
2018-03-27T01:51:34.991Z,0
2018-03-27T01:52:34.451Z,0
2018-03-27T01:53:34.714Z,0
2018-03-27T01:54:34.702Z,0
2018-03-27T01:55:34.439Z,0
2018-03-27T01:56:34.938Z,0
2018-03-27T01:57:34.951Z,0
2018-03-27T01:58:34.648Z,0
2018-03-27T01:59:34.391Z,0
2018-03-27T02:00:34.626Z,0
2018-03-27T02:01:34.899Z,0
2018-03-27T02:02:35.275Z,0
2018-03-27T02:03:34.826Z,0
2018-03-27T02:04:34.825Z,0
2018-03-27T02:05:34.578Z,0
2018-03-27T02:06:34.802Z,0
2018-03-27T02:07:34.800Z,0
2018-03-27T02:08:34.518Z,0
2018-03-27T02:09:34.761Z,0
2018-03-27T02:10:33.986Z,0
2018-03-27T02:11:34.511Z,0
2018-03-27T02:12:34.754Z,0
2018-03-27T02:13:34.740Z,0
2018-03-27T02:14:34.204Z,0
2018-03-27T02:15:34.706Z,0
2018-03-27T02:16:34.682Z,0
2018-03-27T02:17:34.671Z,0
2018-03-27T02:18:34.683Z,0
2018-03-27T02:19:34.695Z,0
2018-03-27T02:20:34.707Z,0
2018-03-27T02:21:34.377Z,0
2018-03-27T02:22:34.619Z,0
2018-03-27T02:23:34.602Z,0
2018-03-27T02:24:34.603Z,0
2018-03-27T02:25:34.580Z,0
2018-03-27T02:26:34.565Z,0
2018-03-27T02:27:34.548Z,0
2018-03-27T02:28:34.281Z,0
2018-03-27T02:29:34.537Z,0
2018-03-27T02:30:34.513Z,0
2018-03-27T02:31:34.523Z,0
2018-03-27T02:32:34.497Z,0
2018-03-27T02:33:34.479Z,0
2018-03-27T02:34:34.222Z,0
2018-03-27T02:35:34.461Z,0
2018-03-27T02:36:34.209Z,0
2018-03-27T02:37:34.449Z,0
2018-03-27T02:38:34.169Z,0
2018-03-27T02:39:33.902Z,0
2018-03-27T02:40:33.892Z,0
2018-03-27T02:41:34.402Z,0
2018-03-27T02:42:34.379Z,0
2018-03-27T02:43:34.368Z,0
2018-03-27T02:44:34.360Z,0
2018-03-27T02:45:34.341Z,0
2018-03-27T02:46:34.329Z,0
2018-03-27T02:47:34.318Z,0
2018-03-27T02:48:34.319Z,0
2018-03-27T02:49:34.300Z,0
2018-03-27T02:50:34.028Z,0
2018-03-27T02:51:34.022Z,0
2018-03-27T02:52:34.024Z,0
2018-03-27T02:53:33.760Z,0
2018-03-27T02:54:34.284Z,0
2018-03-27T02:55:34.233Z,0
2018-03-27T02:56:34.429Z,0
2018-03-27T02:57:34.199Z,0
2018-03-27T02:58:34.194Z,0
2018-03-27T02:59:33.925Z,0
2018-03-27T03:00:33.913Z,0
2018-03-27T03:01:34.187Z,0
2018-03-27T03:02:34.148Z,0
2018-03-27T03:03:34.160Z,0
2018-03-27T03:04:33.361Z,0
2018-03-27T03:05:34.106Z,0
2018-03-27T03:06:34.106Z,0
2018-03-27T03:07:34.093Z,0
2018-03-27T03:08:33.825Z,0
2018-03-27T03:09:34.066Z,0
2018-03-27T03:10:34.048Z,0
2018-03-27T03:11:33.776Z,0
2018-03-27T03:12:34.032Z,0
2018-03-27T03:13:33.504Z,0
2018-03-27T03:14:33.740Z,0
2018-03-27T03:15:33.477Z,0
2018-03-27T03:16:33.976Z,0
2018-03-27T03:17:33.960Z,0
2018-03-27T03:18:33.950Z,0
2018-03-27T03:19:33.933Z,0
2018-03-27T03:20:33.997Z,0
2018-03-27T03:21:33.407Z,0
2018-03-27T03:22:33.898Z,0
2018-03-27T03:23:33.888Z,0
2018-03-27T03:24:33.632Z,0
2018-03-27T03:25:33.359Z,0
2018-03-27T03:26:33.852Z,0
2018-03-27T03:27:33.848Z,0
2018-03-27T03:28:33.838Z,0
2018-03-27T03:29:33.617Z,0
2018-03-27T03:30:33.312Z,0
2018-03-27T03:31:33.810Z,0
2018-03-27T03:32:33.782Z,0
2018-03-27T03:33:33.784Z,0
2018-03-27T03:34:33.507Z,0
2018-03-27T03:35:33.494Z,0
2018-03-27T03:36:33.734Z,0
2018-03-27T03:37:33.721Z,0
2018-03-27T03:38:33.459Z,0
2018-03-27T03:39:33.699Z,0
2018-03-27T03:40:33.691Z,0
2018-03-27T03:41:33.174Z,0
2018-03-27T03:42:33.415Z,0
2018-03-27T03:43:33.420Z,0
2018-03-27T03:44:33.402Z,0
2018-03-27T03:45:33.643Z,0
2018-03-27T03:46:33.361Z,0
2018-03-27T03:47:33.603Z,0
2018-03-27T03:48:33.338Z,0
2018-03-27T03:49:33.076Z,0
2018-03-27T03:50:33.567Z,0
2018-03-27T03:51:33.557Z,0
2018-03-27T03:52:33.547Z,0
2018-03-27T03:53:33.534Z,0
2018-03-27T03:54:33.269Z,0
2018-03-27T03:55:33.515Z,0
2018-03-27T03:56:33.497Z,0
2018-03-27T03:57:33.487Z,0
2018-03-27T03:58:33.476Z,0
2018-03-27T03:59:33.464Z,0
2018-03-27T04:00:33.583Z,0
2018-03-27T04:01:33.439Z,32
2018-03-27T04:02:33.174Z,40
2018-03-27T04:03:32.915Z,40
2018-03-27T04:04:33.150Z,40
2018-03-27T04:05:33.394Z,40
2018-03-27T04:06:32.872Z,40
2018-03-27T04:07:33.368Z,40
2018-03-27T04:08:33.353Z,40
2018-03-27T04:09:33.345Z,40
2018-03-27T04:10:33.331Z,44
2018-03-27T04:11:33.069Z,44
2018-03-27T04:12:33.306Z,40
2018-03-27T04:13:33.297Z,40
2018-03-27T04:14:33.296Z,44
2018-03-27T04:15:32.765Z,44
2018-03-27T04:16:33.268Z,44
2018-03-27T04:17:33.252Z,44
2018-03-27T04:18:33.233Z,44
2018-03-27T04:19:33.268Z,40
2018-03-27T04:20:33.215Z,0
2018-03-27T04:21:33.195Z,0
2018-03-27T04:22:32.686Z,0
2018-03-27T04:23:33.173Z,4
2018-03-27T04:24:32.910Z,4
2018-03-27T04:25:33.169Z,0
2018-03-27T04:26:32.632Z,4
2018-03-27T04:27:33.121Z,4
2018-03-27T04:28:33.117Z,4
2018-03-27T04:29:33.104Z,8
2018-03-27T04:30:33.086Z,8
2018-03-27T04:31:33.083Z,8
2018-03-27T04:32:32.807Z,8
2018-03-27T04:33:33.050Z,12
2018-03-27T04:34:33.038Z,12
2018-03-27T04:35:33.023Z,16
2018-03-27T04:36:33.015Z,16
2018-03-27T04:37:33.020Z,20
2018-03-27T04:38:33.002Z,20
2018-03-27T04:39:32.487Z,24
2018-03-27T04:40:32.970Z,32
2018-03-27T04:41:32.961Z,36
2018-03-27T04:42:32.686Z,36
2018-03-27T04:43:32.680Z,40
2018-03-27T04:44:32.917Z,44
2018-03-27T04:45:32.905Z,52
2018-03-27T04:46:32.638Z,56
2018-03-27T04:47:32.884Z,60
2018-03-27T04:48:32.616Z,64
2018-03-27T04:49:32.356Z,72
2018-03-27T04:50:32.844Z,76
2018-03-27T04:51:32.836Z,80
2018-03-27T04:52:32.722Z,88
2018-03-27T04:53:32.808Z,92
2018-03-27T04:54:32.298Z,100
2018-03-27T04:55:32.787Z,112
2018-03-27T04:56:32.781Z,124
2018-03-27T04:57:32.510Z,140
2018-03-27T04:58:32.751Z,156
2018-03-27T04:59:32.494Z,168
2018-03-27T05:00:32.471Z,184
2018-03-27T05:01:32.718Z,208
2018-03-27T05:02:32.545Z,228
2018-03-27T05:03:32.439Z,252
2018-03-27T05:04:32.428Z,284
2018-03-27T05:05:32.163Z,312
2018-03-27T05:06:32.661Z,340
2018-03-27T05:07:32.389Z,376
2018-03-27T05:08:32.634Z,408
2018-03-27T05:09:32.626Z,432
2018-03-27T05:10:32.353Z,460
2018-03-27T05:11:32.363Z,488
2018-03-27T05:12:32.084Z,508
2018-03-27T05:13:32.576Z,524
2018-03-27T05:14:32.603Z,544
2018-03-27T05:15:32.039Z,556
2018-03-27T05:16:32.537Z,576
2018-03-27T05:17:32.528Z,600
2018-03-27T05:18:32.517Z,588
2018-03-27T05:19:32.244Z,572
2018-03-27T05:20:32.232Z,604
2018-03-27T05:21:32.481Z,680
2018-03-27T05:22:32.223Z,732
2018-03-27T05:23:32.462Z,764
2018-03-27T05:24:32.187Z,800
2018-03-27T05:25:32.430Z,852
2018-03-27T05:26:32.539Z,904
2018-03-27T05:27:32.404Z,952
2018-03-27T05:28:32.396Z,988
2018-03-27T05:29:32.133Z,1028
2018-03-27T05:30:32.369Z,1068
2018-03-27T05:31:32.101Z,1124
2018-03-27T05:32:32.344Z,1204
2018-03-27T05:33:32.088Z,1300
2018-03-27T05:34:32.328Z,1396
2018-03-27T05:35:32.310Z,1484
2018-03-27T05:36:32.308Z,1588
2018-03-27T05:37:32.286Z,1700
2018-03-27T05:38:32.271Z,1812
2018-03-27T05:39:32.278Z,1888
2018-03-27T05:40:32.001Z,1920
2018-03-27T05:41:32.253Z,1936
2018-03-27T05:42:32.225Z,1948
2018-03-27T05:43:32.227Z,2004
2018-03-27T05:44:32.225Z,2100
2018-03-27T05:45:31.713Z,2192
2018-03-27T05:46:31.927Z,2292
2018-03-27T05:47:32.167Z,2392
2018-03-27T05:48:32.164Z,2484
2018-03-27T05:49:31.935Z,2628
2018-03-27T05:50:32.138Z,2728
2018-03-27T05:51:32.177Z,2852
2018-03-27T05:52:32.112Z,2996
2018-03-27T05:53:32.103Z,3184
2018-03-27T05:54:31.577Z,3464
2018-03-27T05:55:31.819Z,3892
2018-03-27T05:56:32.063Z,4388
2018-03-27T05:57:32.053Z,4884
2018-03-27T05:58:31.788Z,5132
2018-03-27T05:59:31.780Z,5124
2018-03-27T06:00:32.015Z,5176
2018-03-27T06:01:32.013Z,5244
2018-03-27T06:02:31.749Z,5612
2018-03-27T06:03:31.981Z,5720
2018-03-27T06:04:31.727Z,5304
2018-03-27T06:05:31.450Z,4692
2018-03-27T06:06:32.120Z,3936
2018-03-27T06:07:31.693Z,3396
2018-03-27T06:08:31.943Z,2968
2018-03-27T06:09:31.407Z,2560
2018-03-27T06:10:31.988Z,2232
2018-03-27T06:11:31.395Z,2012
2018-03-27T06:12:31.890Z,1804
2018-03-27T06:13:31.633Z,1628
2018-03-27T06:14:31.605Z,1516
2018-03-27T06:15:31.608Z,1428
2018-03-27T06:16:31.589Z,1376
2018-03-27T06:17:31.837Z,1400
2018-03-27T06:18:31.832Z,1500
2018-03-27T06:19:31.298Z,1652
2018-03-27T06:20:31.546Z,1880
2018-03-27T06:21:31.545Z,2176
2018-03-27T06:22:31.774Z,2576
2018-03-27T06:23:31.796Z,2808
2018-03-27T06:24:31.561Z,2952
2018-03-27T06:25:31.503Z,3288
2018-03-27T06:26:31.479Z,3856
2018-03-27T06:27:31.584Z,4396
2018-03-27T06:28:31.714Z,4956
2018-03-27T06:29:31.730Z,5564
2018-03-27T06:30:31.688Z,6040
2018-03-27T06:31:31.689Z,6260
2018-03-27T06:32:31.664Z,6248
2018-03-27T06:33:31.666Z,5832
2018-03-27T06:34:31.649Z,5460
2018-03-27T06:35:31.447Z,5112
2018-03-27T06:36:31.134Z,4880
2018-03-27T06:37:31.619Z,4916
2018-03-27T06:38:31.608Z,5036
2018-03-27T06:39:31.092Z,5188
2018-03-27T06:40:31.582Z,5460
2018-03-27T06:41:31.575Z,5840
2018-03-27T06:42:31.564Z,6388
2018-03-27T06:43:31.299Z,7052
2018-03-27T06:44:31.545Z,7980
2018-03-27T06:45:31.544Z,8688
2018-03-27T06:46:31.546Z,8736
2018-03-27T06:47:31.531Z,8572
2018-03-27T06:48:31.509Z,8632
2018-03-27T06:49:31.244Z,8860
2018-03-27T06:50:31.489Z,9312
2018-03-27T06:51:31.223Z,9888
2018-03-27T06:52:31.210Z,10176
2018-03-27T06:53:31.455Z,10100
2018-03-27T06:54:31.202Z,9600
2018-03-27T06:55:30.951Z,9028
2018-03-27T06:56:31.441Z,8948
2018-03-27T06:57:31.172Z,9308
2018-03-27T06:58:31.157Z,9548
2018-03-27T06:59:31.411Z,10064
2018-03-27T07:00:31.143Z,10552
2018-03-27T07:01:30.877Z,11252
2018-03-27T07:02:31.410Z,12112
2018-03-27T07:03:31.463Z,12832
2018-03-27T07:04:31.399Z,13324
2018-03-27T07:05:31.260Z,13748
2018-03-27T07:06:31.434Z,14104
2018-03-27T07:07:31.385Z,14436
2018-03-27T07:08:31.361Z,14860
2018-03-27T07:09:31.111Z,15268
2018-03-27T07:10:31.369Z,14960
2018-03-27T07:11:31.358Z,14488
2018-03-27T07:12:31.074Z,14280
2018-03-27T07:13:31.336Z,14448
2018-03-27T07:14:31.295Z,14904
2018-03-27T07:15:31.051Z,15840
2018-03-27T07:16:31.309Z,17632
2018-03-27T07:17:31.016Z,19808
2018-03-27T07:18:31.289Z,20704
2018-03-27T07:19:30.777Z,18976
2018-03-27T07:20:31.061Z,15292
2018-03-27T07:21:31.228Z,13500
2018-03-27T07:22:31.266Z,12996
2018-03-27T07:23:31.225Z,13568
2018-03-27T07:24:31.207Z,16512
2018-03-27T07:25:30.426Z,17472
2018-03-27T07:26:31.178Z,18592
2018-03-27T07:27:30.925Z,19264
2018-03-27T07:28:31.162Z,14788
2018-03-27T07:29:31.176Z,13600
2018-03-27T07:30:31.200Z,14080
2018-03-27T07:31:30.904Z,15272
2018-03-27T07:32:31.254Z,19328
2018-03-27T07:33:30.895Z,29984
2018-03-27T07:34:31.127Z,47872
2018-03-27T07:35:31.127Z,47264
2018-03-27T07:36:30.604Z,48480
2018-03-27T07:37:31.134Z,46976
2018-03-27T07:38:31.111Z,45376
2018-03-27T07:39:31.091Z,47008
2018-03-27T07:40:31.208Z,48032
2018-03-27T07:41:31.096Z,49664
2018-03-27T07:42:31.086Z,49248
2018-03-27T07:43:30.841Z,48288
2018-03-27T07:44:30.830Z,42912
2018-03-27T07:45:31.078Z,38336
2018-03-27T07:46:31.075Z,38752
2018-03-27T07:47:31.090Z,40320
2018-03-27T07:48:31.064Z,39232
2018-03-27T07:49:31.077Z,36960
2018-03-27T07:50:30.555Z,39104
2018-03-27T07:51:31.080Z,39168
2018-03-27T07:52:31.089Z,41120
2018-03-27T07:53:31.078Z,41632
2018-03-27T07:54:31.149Z,40704
2018-03-27T07:55:31.053Z,39776
2018-03-27T07:56:31.058Z,41440
2018-03-27T07:57:31.061Z,40768
2018-03-27T07:58:31.055Z,35744
2018-03-27T07:59:30.801Z,22976
2018-03-27T08:00:30.798Z,14484
2018-03-27T08:01:30.790Z,15684
2018-03-27T08:02:30.286Z,33280
2018-03-27T08:03:31.162Z,13636
2018-03-27T08:04:31.072Z,12916
2018-03-27T08:05:31.040Z,12664
2018-03-27T08:06:31.059Z,12312
2018-03-27T08:07:31.044Z,11860
2018-03-27T08:08:31.036Z,11676
2018-03-27T08:09:30.796Z,11668
2018-03-27T08:10:30.777Z,11588
2018-03-27T08:11:31.037Z,11704
2018-03-27T08:12:31.096Z,12044
2018-03-27T08:13:30.785Z,12584
2018-03-27T08:14:30.526Z,13256
2018-03-27T08:15:31.019Z,13524
2018-03-27T08:16:31.071Z,13952
2018-03-27T08:17:30.781Z,14016
2018-03-27T08:18:31.056Z,13692
2018-03-27T08:19:30.506Z,13496
2018-03-27T08:20:31.000Z,13356
2018-03-27T08:21:30.997Z,13568
2018-03-27T08:22:30.995Z,13804
2018-03-27T08:23:30.997Z,14212
2018-03-27T08:24:31.184Z,14128
2018-03-27T08:25:30.979Z,14280
2018-03-27T08:26:30.977Z,14664
2018-03-27T08:27:30.880Z,15076
2018-03-27T08:28:30.994Z,15840
2018-03-27T08:29:30.819Z,16288
2018-03-27T08:30:30.452Z,16576
2018-03-27T08:31:30.956Z,16640
2018-03-27T08:32:30.444Z,16608
2018-03-27T08:33:30.952Z,15680
2018-03-27T08:34:30.480Z,14660
2018-03-27T08:35:30.692Z,12784
2018-03-27T08:36:31.314Z,10988
2018-03-27T08:37:30.684Z,9236
2018-03-27T08:38:30.734Z,7948
2018-03-27T08:39:30.687Z,7180
2018-03-27T08:40:30.690Z,6824
2018-03-27T08:41:30.699Z,6904
2018-03-27T08:42:30.663Z,7280
2018-03-27T08:43:31.053Z,7860
2018-03-27T08:44:30.640Z,8504
2018-03-27T08:45:30.887Z,9360
2018-03-27T08:46:30.890Z,10728
2018-03-27T08:47:30.886Z,12804
2018-03-27T08:48:30.615Z,14904
2018-03-27T08:49:30.587Z,16992
2018-03-27T08:50:30.627Z,18240
2018-03-27T08:51:30.651Z,18688
2018-03-27T08:52:30.355Z,20160
2018-03-27T08:53:30.600Z,19968
2018-03-27T08:54:30.647Z,19456
2018-03-27T08:55:30.593Z,19392
2018-03-27T08:56:30.576Z,19328
2018-03-27T08:57:30.828Z,18624
2018-03-27T08:58:30.812Z,17632
2018-03-27T08:59:30.323Z,15976
2018-03-27T09:00:30.801Z,14540
2018-03-27T09:01:30.797Z,13612
2018-03-27T09:02:30.836Z,13104
2018-03-27T09:03:30.797Z,12812
2018-03-27T09:04:30.542Z,12704
2018-03-27T09:05:30.795Z,12528
2018-03-27T09:06:30.534Z,12480
2018-03-27T09:07:30.767Z,12304
2018-03-27T09:08:30.514Z,12108
2018-03-27T09:09:30.765Z,12572
2018-03-27T09:10:30.762Z,12332
2018-03-27T09:11:30.491Z,11468
2018-03-27T09:12:30.487Z,10520
2018-03-27T09:13:30.222Z,10108
2018-03-27T09:14:30.216Z,9880
2018-03-27T09:15:30.999Z,10248
2018-03-27T09:16:30.774Z,11176
2018-03-27T09:17:30.472Z,12320
2018-03-27T09:18:30.453Z,13132
2018-03-27T09:19:30.212Z,13616
2018-03-27T09:20:30.691Z,13968
2018-03-27T09:21:30.688Z,13588
2018-03-27T09:22:30.201Z,13100
2018-03-27T09:23:30.753Z,12932
2018-03-27T09:24:30.677Z,12584
2018-03-27T09:25:30.698Z,13632
2018-03-27T09:26:30.751Z,15004
2018-03-27T09:27:30.674Z,16672
2018-03-27T09:28:30.404Z,17248
2018-03-27T09:29:30.645Z,17536
2018-03-27T09:30:30.430Z,17600
2018-03-27T09:31:30.701Z,17664
2018-03-27T09:32:30.422Z,16768
2018-03-27T09:33:30.371Z,16252
2018-03-27T09:34:30.369Z,16292
2018-03-27T09:35:30.621Z,17504
2018-03-27T09:36:30.369Z,19168
2018-03-27T09:37:30.596Z,20288
2018-03-27T09:38:29.906Z,20864
2018-03-27T09:39:30.336Z,21440
2018-03-27T09:40:30.603Z,21632
2018-03-27T09:41:30.619Z,21888
2018-03-27T09:42:30.318Z,22080
2018-03-27T09:43:30.390Z,22880
2018-03-27T09:44:30.079Z,23072
2018-03-27T09:45:30.725Z,22144
2018-03-27T09:46:30.049Z,20928
2018-03-27T09:47:30.315Z,20224
2018-03-27T09:48:30.586Z,20000
2018-03-27T09:49:30.601Z,19584
2018-03-27T09:50:30.554Z,19392
2018-03-27T09:51:30.341Z,19104
2018-03-27T09:52:30.586Z,19168
2018-03-27T09:53:30.988Z,19680
2018-03-27T09:54:30.249Z,19680
2018-03-27T09:55:30.510Z,18752
2018-03-27T09:56:30.514Z,17792
2018-03-27T09:57:30.528Z,16928
2018-03-27T09:58:30.366Z,16352
2018-03-27T09:59:30.225Z,15556
2018-03-27T10:00:30.499Z,14864
2018-03-27T10:01:29.978Z,14120
2018-03-27T10:02:30.473Z,13368
2018-03-27T10:03:30.480Z,12408
2018-03-27T10:04:30.250Z,11096
2018-03-27T10:05:30.466Z,9836
2018-03-27T10:06:30.450Z,9012
2018-03-27T10:07:30.459Z,8448
2018-03-27T10:08:30.461Z,8040
2018-03-27T10:09:30.230Z,7852
2018-03-27T10:10:30.429Z,7852
2018-03-27T10:11:30.693Z,7960
2018-03-27T10:12:30.442Z,8108
2018-03-27T10:13:30.192Z,8264
2018-03-27T10:14:29.920Z,8428
2018-03-27T10:15:30.434Z,8564
2018-03-27T10:16:30.402Z,8820
2018-03-27T10:17:30.397Z,9136
2018-03-27T10:18:30.407Z,9424
2018-03-27T10:19:29.900Z,9596
2018-03-27T10:20:30.401Z,9692
2018-03-27T10:21:30.133Z,9760
2018-03-27T10:22:30.377Z,9880
2018-03-27T10:23:29.864Z,10004
2018-03-27T10:24:30.369Z,10004
2018-03-27T10:25:30.105Z,9832
2018-03-27T10:26:30.347Z,9720
2018-03-27T10:27:30.413Z,9644
2018-03-27T10:28:30.100Z,9704
2018-03-27T10:29:30.339Z,9772
2018-03-27T10:30:29.828Z,9784
2018-03-27T10:31:30.323Z,9732
2018-03-27T10:32:30.315Z,9752
2018-03-27T10:33:30.077Z,9868
2018-03-27T10:34:30.336Z,9948
2018-03-27T10:35:30.110Z,9956
2018-03-27T10:36:30.070Z,9968
2018-03-27T10:37:30.035Z,10040
2018-03-27T10:38:30.357Z,10224
2018-03-27T10:39:29.511Z,10460
2018-03-27T10:40:30.287Z,10740
2018-03-27T10:41:30.277Z,11156
2018-03-27T10:42:30.538Z,11736
2018-03-27T10:43:30.271Z,12276
2018-03-27T10:44:30.257Z,12572
2018-03-27T10:45:30.426Z,12704
2018-03-27T10:46:30.244Z,12788
2018-03-27T10:47:29.977Z,12956
2018-03-27T10:48:29.972Z,13228
2018-03-27T10:49:29.716Z,13628
2018-03-27T10:50:30.234Z,14320
2018-03-27T10:51:30.256Z,15196
2018-03-27T10:52:29.940Z,16064
2018-03-27T10:53:29.954Z,16736
2018-03-27T10:54:29.704Z,17408
2018-03-27T10:55:29.441Z,17728
2018-03-27T10:56:29.950Z,18080
2018-03-27T10:57:29.928Z,18496
2018-03-27T10:58:29.935Z,18848
2018-03-27T10:59:29.905Z,19136
2018-03-27T11:00:29.916Z,19328
2018-03-27T11:01:30.225Z,19552
2018-03-27T11:02:30.202Z,19616
2018-03-27T11:03:29.636Z,19680
2018-03-27T11:04:30.145Z,19840
2018-03-27T11:05:30.129Z,19936
2018-03-27T11:06:29.886Z,19840
2018-03-27T11:07:30.119Z,19648
2018-03-27T11:08:29.877Z,19584
2018-03-27T11:09:30.116Z,19456
2018-03-27T11:10:30.101Z,19360
2018-03-27T11:11:30.114Z,19200
2018-03-27T11:12:29.891Z,19136
2018-03-27T11:13:29.830Z,18944
2018-03-27T11:14:30.167Z,18848
2018-03-27T11:15:29.869Z,18944
2018-03-27T11:16:29.859Z,19008
2018-03-27T11:17:30.117Z,19136
2018-03-27T11:18:29.868Z,19232
2018-03-27T11:19:30.107Z,19328
2018-03-27T11:20:30.069Z,19424
2018-03-27T11:21:30.106Z,19648
2018-03-27T11:22:30.114Z,19904
2018-03-27T11:23:30.146Z,20096
2018-03-27T11:24:30.159Z,20096
2018-03-27T11:25:30.226Z,20096
2018-03-27T11:26:30.085Z,20032
2018-03-27T11:27:29.643Z,20064
2018-03-27T11:28:30.154Z,20096
2018-03-27T11:29:29.884Z,20128
2018-03-27T11:30:29.824Z,20128
2018-03-27T11:31:29.781Z,20064
2018-03-27T11:32:29.792Z,20128
2018-03-27T11:33:30.018Z,20256
2018-03-27T11:34:29.758Z,20384
2018-03-27T11:35:30.000Z,20320
2018-03-27T11:36:29.990Z,20224
2018-03-27T11:37:29.507Z,20224
2018-03-27T11:38:30.056Z,20192
2018-03-27T11:39:29.475Z,20128
2018-03-27T11:40:30.079Z,19936
2018-03-27T11:41:30.006Z,19808
2018-03-27T11:42:29.751Z,19680
2018-03-27T11:43:30.024Z,19520
2018-03-27T11:44:30.021Z,19360
2018-03-27T11:45:30.067Z,19232
2018-03-27T11:46:30.089Z,19168
2018-03-27T11:47:30.288Z,19200
2018-03-27T11:48:29.854Z,19328
2018-03-27T11:49:30.061Z,19456
2018-03-27T11:50:29.509Z,19520
2018-03-27T11:51:29.509Z,19520
2018-03-27T11:52:30.034Z,19424
2018-03-27T11:53:30.114Z,19232
2018-03-27T11:54:29.782Z,19040
2018-03-27T11:55:30.100Z,18816
2018-03-27T11:56:30.092Z,18592
2018-03-27T11:57:29.685Z,18272
2018-03-27T11:58:29.947Z,18080
2018-03-27T11:59:29.914Z,17952
2018-03-27T12:00:29.675Z,17824
2018-03-27T12:01:30.236Z,17824
2018-03-27T12:02:29.940Z,18016
2018-03-27T12:03:29.899Z,18208
2018-03-27T12:04:29.398Z,18336
2018-03-27T12:05:29.922Z,18592
2018-03-27T12:06:29.897Z,18848
2018-03-27T12:07:29.752Z,18976
2018-03-27T12:08:29.879Z,18976
2018-03-27T12:09:29.125Z,18976
2018-03-27T12:10:29.710Z,18944
2018-03-27T12:11:29.608Z,18944
2018-03-27T12:12:29.603Z,18912
2018-03-27T12:13:29.347Z,18848
2018-03-27T12:14:29.602Z,18848
2018-03-27T12:15:29.883Z,18912
2018-03-27T12:16:29.890Z,19040
2018-03-27T12:17:29.853Z,18912
2018-03-27T12:18:29.850Z,18880
2018-03-27T12:19:29.589Z,18784
2018-03-27T12:20:29.836Z,18784
2018-03-27T12:21:29.850Z,18816
2018-03-27T12:22:29.820Z,18688
2018-03-27T12:23:29.578Z,18592
2018-03-27T12:24:29.811Z,18528
2018-03-27T12:25:29.811Z,18336
2018-03-27T12:26:29.822Z,18144
2018-03-27T12:27:29.797Z,18048
2018-03-27T12:28:29.799Z,17984
2018-03-27T12:29:29.577Z,17984
2018-03-27T12:30:29.790Z,18112
2018-03-27T12:31:29.793Z,18272
2018-03-27T12:32:29.523Z,18304
2018-03-27T12:33:29.268Z,18304
2018-03-27T12:34:29.793Z,18240
2018-03-27T12:35:29.815Z,18048
2018-03-27T12:36:29.776Z,17728
2018-03-27T12:37:29.534Z,17408
2018-03-27T12:38:29.790Z,17120
2018-03-27T12:39:29.867Z,16928
2018-03-27T12:40:29.753Z,16800
2018-03-27T12:41:29.490Z,16704
2018-03-27T12:42:29.853Z,16544
2018-03-27T12:43:29.754Z,16256
2018-03-27T12:44:29.765Z,16064
2018-03-27T12:45:29.483Z,15872
2018-03-27T12:46:29.765Z,15516
2018-03-27T12:47:29.743Z,15416
2018-03-27T12:48:29.742Z,15476
2018-03-27T12:49:29.209Z,15608
2018-03-27T12:50:29.739Z,15936
2018-03-27T12:51:29.479Z,16256
2018-03-27T12:52:29.731Z,16544
2018-03-27T12:53:29.473Z,16768
2018-03-27T12:54:29.481Z,16864
2018-03-27T12:55:29.519Z,17088
2018-03-27T12:56:29.696Z,17376
2018-03-27T12:57:29.688Z,17504
2018-03-27T12:58:29.715Z,17536
2018-03-27T12:59:29.475Z,17536
2018-03-27T13:00:29.553Z,17536
2018-03-27T13:01:29.736Z,17536
2018-03-27T13:02:29.209Z,17600
2018-03-27T13:03:29.413Z,17600
2018-03-27T13:04:29.674Z,17504
2018-03-27T13:05:29.666Z,17344
2018-03-27T13:06:29.692Z,17120
2018-03-27T13:07:29.416Z,16832
2018-03-27T13:08:29.434Z,16480
2018-03-27T13:09:29.695Z,16032
2018-03-27T13:10:29.641Z,15492
2018-03-27T13:11:29.136Z,15140
2018-03-27T13:12:29.647Z,14852
2018-03-27T13:13:29.646Z,14608
2018-03-27T13:14:29.630Z,14368
2018-03-27T13:15:29.638Z,14092
2018-03-27T13:16:29.382Z,13868
2018-03-27T13:17:29.368Z,13528
2018-03-27T13:18:29.626Z,13060
2018-03-27T13:19:29.401Z,12576
2018-03-27T13:20:29.616Z,12124
2018-03-27T13:21:29.348Z,11908
2018-03-27T13:22:29.665Z,11836
2018-03-27T13:23:29.651Z,11664
2018-03-27T13:24:29.110Z,11496
2018-03-27T13:25:29.350Z,11324
2018-03-27T13:26:29.411Z,11060
2018-03-27T13:27:29.592Z,10740
2018-03-27T13:28:29.591Z,10376
2018-03-27T13:29:29.590Z,10096
2018-03-27T13:30:29.576Z,9892
2018-03-27T13:31:29.637Z,9768
2018-03-27T13:32:29.899Z,9712
2018-03-27T13:33:29.313Z,9796
2018-03-27T13:34:29.576Z,9916
2018-03-27T13:35:29.574Z,10064